createdAt,value
2022-10-11T00:00:47.807Z,13.77
2022-10-11T00:03:14.773Z,13.78
2022-10-11T00:05:44.076Z,13.80
2022-10-11T00:08:14.213Z,13.82
2022-10-11T00:10:41.639Z,13.84
2022-10-11T00:13:08.698Z,13.88
2022-10-11T00:15:35.503Z,13.91
2022-10-11T00:18:05.287Z,13.95
2022-10-11T00:20:32.382Z,13.97
2022-10-11T00:22:59.125Z,13.99
2022-10-11T00:25:25.927Z,14.01
2022-10-11T00:27:52.686Z,14.00
2022-10-11T00:30:19.736Z,14.03
2022-10-11T00:32:46.543Z,14.03
2022-10-11T00:35:13.363Z,14.04
2022-10-11T00:37:40.152Z,14.06
2022-10-11T00:40:15.727Z,14.09
2022-10-11T00:42:44.744Z,14.06
2022-10-11T00:45:26.504Z,14.05
2022-10-11T00:48:00.633Z,14.07
2022-10-11T00:50:30.595Z,14.07
2022-10-11T00:53:01.234Z,14.05
2022-10-11T00:55:33.716Z,14.04
2022-10-11T00:58:01.065Z,14.04
2022-10-11T01:00:27.853Z,14.09
2022-10-11T01:02:55.284Z,14.11
2022-10-11T01:05:30.307Z,14.13
2022-10-11T01:08:00.281Z,14.16
2022-10-11T01:10:28.108Z,14.14
2022-10-11T01:13:12.821Z,14.13
2022-10-11T01:15:59.912Z,14.09
2022-10-11T01:18:49.914Z,14.08
2022-10-11T01:21:43.023Z,14.03
2022-10-11T01:24:31.241Z,14.00
2022-10-11T01:27:12.199Z,14.03
2022-10-11T01:29:57.484Z,14.04
2022-10-11T01:32:31.300Z,14.03
2022-10-11T01:35:10.938Z,14.04
2022-10-11T01:37:48.771Z,14.02
2022-10-11T01:40:32.590Z,14.02
2022-10-11T01:43:01.875Z,14.06
2022-10-11T01:45:29.656Z,14.09
2022-10-11T01:48:13.697Z,14.09
2022-10-11T01:50:49.792Z,14.08
2022-10-11T01:53:28.747Z,14.07
2022-10-11T01:56:16.496Z,14.07
2022-10-11T01:58:55.173Z,14.08
2022-10-11T02:01:56.189Z,14.06
2022-10-11T02:04:48.812Z,14.05
2022-10-11T02:07:40.460Z,13.98
2022-10-11T02:10:15.800Z,13.95
2022-10-11T02:12:46.601Z,13.94
2022-10-11T02:15:17.149Z,13.91
2022-10-11T02:17:49.490Z,13.91
2022-10-11T02:20:21.367Z,13.84
2022-10-11T02:22:51.768Z,13.81
2022-10-11T02:25:24.831Z,13.77
2022-10-11T02:27:56.972Z,13.78
2022-10-11T02:30:24.034Z,13.80
2022-10-11T02:32:52.838Z,13.77
2022-10-11T02:35:24.461Z,13.76
2022-10-11T02:38:05.589Z,13.76
2022-10-11T02:40:33.483Z,13.71
2022-10-11T02:43:09.148Z,13.73
2022-10-11T02:45:43.258Z,13.68
2022-10-11T02:48:12.498Z,13.65
2022-10-11T02:50:40.546Z,13.66
2022-10-11T02:53:07.986Z,13.64
2022-10-11T02:55:35.103Z,13.59
2022-10-11T02:58:02.252Z,13.60
2022-10-11T03:00:29.230Z,13.59
2022-10-11T03:02:56.029Z,13.61
2022-10-11T03:05:22.863Z,13.64
2022-10-11T03:07:49.670Z,13.63
2022-10-11T03:10:16.697Z,13.60
2022-10-11T03:12:44.729Z,13.62
2022-10-11T03:15:11.535Z,13.64
2022-10-11T03:17:38.293Z,13.68
2022-10-11T03:20:06.705Z,13.71
2022-10-11T03:22:33.441Z,13.65
2022-10-11T03:25:03.922Z,13.59
2022-10-11T03:27:32.112Z,13.60
2022-10-11T03:29:58.996Z,13.62
2022-10-11T03:32:25.861Z,13.63
2022-10-11T03:34:52.750Z,13.62
2022-10-11T03:37:19.552Z,13.53
2022-10-11T03:39:46.509Z,13.48
2022-10-11T03:42:14.004Z,13.45
2022-10-11T03:44:42.231Z,13.49
2022-10-11T03:47:09.562Z,13.53
2022-10-11T03:49:39.972Z,13.59
2022-10-11T03:52:10.746Z,13.62
2022-10-11T03:54:37.508Z,13.64
2022-10-11T03:57:04.504Z,13.64
2022-10-11T03:59:31.439Z,13.65
2022-10-11T04:01:58.248Z,13.59
2022-10-11T04:04:25.111Z,13.54
2022-10-11T04:06:51.901Z,13.54
2022-10-11T04:09:18.669Z,13.51
2022-10-11T04:11:45.458Z,13.50
2022-10-11T04:14:12.242Z,13.48
2022-10-11T04:16:40.181Z,13.49
2022-10-11T04:19:07.221Z,13.48
2022-10-11T04:21:34.236Z,13.41
2022-10-11T04:24:00.994Z,13.32
2022-10-11T04:26:27.720Z,13.10
2022-10-11T04:28:54.806Z,13.11
2022-10-11T04:31:21.672Z,13.17
2022-10-11T04:33:48.464Z,13.23
2022-10-11T04:36:15.268Z,13.31
2022-10-11T04:38:42.173Z,13.33
2022-10-11T04:41:10.659Z,13.28
2022-10-11T04:43:37.711Z,13.31
2022-10-11T04:46:05.263Z,13.37
2022-10-11T04:48:32.524Z,13.37
2022-10-11T04:50:59.277Z,13.30
2022-10-11T04:53:26.125Z,13.27
2022-10-11T04:56:01.555Z,13.26
2022-10-11T04:58:29.841Z,13.22
2022-10-11T05:00:57.423Z,13.16
2022-10-11T05:03:25.060Z,13.16
2022-10-11T05:05:53.020Z,13.17
2022-10-11T05:08:20.585Z,13.17
2022-10-11T05:11:05.331Z,13.15
2022-10-11T05:13:33.718Z,13.12
2022-10-11T05:16:00.694Z,13.03
2022-10-11T05:18:27.546Z,13.01
2022-10-11T05:21:02.643Z,12.96
2022-10-11T05:23:31.491Z,12.91
2022-10-11T05:25:59.131Z,12.86
2022-10-11T05:28:26.748Z,12.77
2022-10-11T05:30:53.925Z,12.76
2022-10-11T05:33:21.250Z,12.70
2022-10-11T05:35:48.009Z,12.75
2022-10-11T05:38:14.862Z,12.78
2022-10-11T05:40:41.608Z,12.80
2022-10-11T05:43:08.543Z,12.81
2022-10-11T05:45:38.078Z,12.71
2022-10-11T05:48:05.199Z,12.73
2022-10-11T05:50:32.571Z,12.75
2022-10-11T05:52:59.592Z,12.78
2022-10-11T05:55:26.396Z,12.71
2022-10-11T05:57:56.530Z,12.72
2022-10-11T06:00:24.930Z,12.73
2022-10-11T06:02:51.706Z,12.74
2022-10-11T06:05:18.650Z,12.75
2022-10-11T06:07:45.471Z,12.76
2022-10-11T06:10:12.362Z,12.70
2022-10-11T06:12:39.212Z,12.69
2022-10-11T06:15:06.599Z,12.68
2022-10-11T06:17:33.434Z,12.68
2022-10-11T06:20:00.183Z,12.68
2022-10-11T06:22:27.573Z,12.70
2022-10-11T06:24:54.352Z,12.65
2022-10-11T06:27:21.181Z,12.61
2022-10-11T06:29:48.026Z,12.60
2022-10-11T06:32:15.001Z,12.58
2022-10-11T06:34:41.774Z,12.53
2022-10-11T06:37:08.578Z,12.40
2022-10-11T06:39:35.385Z,12.40
2022-10-11T06:42:02.295Z,12.34
2022-10-11T06:44:29.374Z,12.34
2022-10-11T06:46:56.258Z,12.32
2022-10-11T06:49:23.651Z,12.39
2022-10-11T06:51:51.068Z,12.44
2022-10-11T06:54:17.916Z,12.49
2022-10-11T06:56:45.814Z,12.44
2022-10-11T06:59:13.579Z,12.45
2022-10-11T07:01:40.818Z,12.43
2022-10-11T07:04:08.426Z,12.40
2022-10-11T07:06:40.373Z,12.34
2022-10-11T07:09:08.568Z,12.33
2022-10-11T07:11:35.830Z,12.28
2022-10-11T07:14:07.763Z,12.19
2022-10-11T07:16:36.525Z,12.10
2022-10-11T07:19:06.140Z,12.10
2022-10-11T07:21:35.008Z,12.10
2022-10-11T07:24:02.406Z,12.08
2022-10-11T07:26:35.291Z,12.03
2022-10-11T07:29:05.283Z,11.99
2022-10-11T07:31:32.187Z,11.94
2022-10-11T07:33:58.926Z,11.94
2022-10-11T07:36:26.046Z,11.84
2022-10-11T07:38:52.948Z,11.89
2022-10-11T07:41:20.013Z,11.98
2022-10-11T07:43:49.874Z,12.06
2022-10-11T07:46:18.478Z,12.12
2022-10-11T07:48:45.402Z,12.18
2022-10-11T07:51:15.290Z,12.24
2022-10-11T07:53:44.461Z,12.26
2022-10-11T07:56:13.220Z,12.18
2022-10-11T07:58:41.629Z,12.26
2022-10-11T08:01:09.298Z,12.32
2022-10-11T08:03:37.573Z,12.32
2022-10-11T08:06:09.728Z,12.35
2022-10-11T08:08:37.622Z,12.37
2022-10-11T08:11:05.923Z,12.41
2022-10-11T08:13:33.411Z,12.40
2022-10-11T08:16:00.333Z,12.46
2022-10-11T08:18:28.138Z,12.50
2022-10-11T08:20:55.020Z,12.53
2022-10-11T08:23:21.815Z,12.57
2022-10-11T08:25:48.888Z,12.47
2022-10-11T08:28:17.879Z,12.34
2022-10-11T08:30:49.635Z,12.34
2022-10-11T08:33:20.390Z,12.47
2022-10-11T08:35:47.775Z,12.56
2022-10-11T08:38:14.982Z,12.56
2022-10-11T08:40:49.486Z,12.62
2022-10-11T08:43:41.250Z,12.71
2022-10-11T08:46:10.074Z,12.75
2022-10-11T08:48:42.266Z,12.80
2022-10-11T08:51:18.447Z,12.79
2022-10-11T08:53:59.826Z,12.75
2022-10-11T08:56:30.300Z,12.84
2022-10-11T08:59:12.199Z,12.97
2022-10-11T09:01:46.453Z,13.10
2022-10-11T09:04:18.142Z,13.28
2022-10-11T09:07:05.135Z,13.43
2022-10-11T09:09:51.492Z,13.50
2022-10-11T09:12:40.610Z,13.51
2022-10-11T09:15:29.398Z,13.52
2022-10-11T09:18:26.151Z,13.64
2022-10-11T09:21:08.378Z,13.76
2022-10-11T09:24:09.388Z,13.85
2022-10-11T09:26:49.551Z,13.83
2022-10-11T09:29:40.382Z,13.86
2022-10-11T09:32:15.395Z,13.93
2022-10-11T09:34:42.767Z,14.01
2022-10-11T09:37:30.533Z,14.09
2022-10-11T09:40:03.353Z,14.16
2022-10-11T09:42:30.074Z,14.27
2022-10-11T09:44:57.639Z,14.27
2022-10-11T09:47:27.166Z,14.25
2022-10-11T09:49:58.152Z,14.23
2022-10-11T09:52:25.089Z,13.97
2022-10-11T09:54:55.427Z,14.03
2022-10-11T09:57:28.523Z,14.09
2022-10-11T10:00:19.171Z,14.14
2022-10-11T10:02:51.452Z,14.10
2022-10-11T10:05:20.242Z,14.13
2022-10-11T10:08:20.367Z,14.21
2022-10-11T10:11:08.343Z,14.29
2022-10-11T10:13:42.724Z,14.29
2022-10-11T10:16:27.097Z,14.33
2022-10-11T10:19:21.554Z,14.43
2022-10-11T10:21:51.302Z,14.57
2022-10-11T10:24:39.336Z,14.62
2022-10-11T10:27:17.127Z,14.64
2022-10-11T10:29:59.639Z,14.68
2022-10-11T10:32:34.002Z,14.91
2022-10-11T10:35:06.765Z,15.13
2022-10-11T10:37:42.678Z,15.27
2022-10-11T10:40:16.182Z,15.33
2022-10-11T10:42:43.180Z,15.31
2022-10-11T10:45:21.584Z,15.39
2022-10-11T10:48:06.992Z,15.41
2022-10-11T10:50:52.133Z,15.37
2022-10-11T10:53:18.884Z,15.35
2022-10-11T10:56:00.111Z,15.40
2022-10-11T10:58:42.057Z,15.46
2022-10-11T11:01:23.966Z,15.54
2022-10-11T11:04:05.879Z,15.56
2022-10-11T11:06:41.679Z,15.46
2022-10-11T11:09:34.528Z,15.56
2022-10-11T11:12:25.601Z,15.68
2022-10-11T11:14:52.205Z,15.73
2022-10-11T11:17:30.497Z,15.82
2022-10-11T11:20:24.804Z,15.85
2022-10-11T11:23:12.933Z,15.95
2022-10-11T11:25:53.557Z,16.00
2022-10-11T11:28:34.499Z,16.05
2022-10-11T11:31:11.897Z,16.13
2022-10-11T11:33:45.143Z,16.21
2022-10-11T11:36:26.444Z,16.10
2022-10-11T11:39:01.534Z,16.06
2022-10-11T11:41:41.351Z,16.06
2022-10-11T11:44:27.616Z,16.11
2022-10-11T11:47:11.923Z,16.11
2022-10-11T11:50:22.830Z,16.13
2022-10-11T11:52:58.258Z,16.11
2022-10-11T11:55:53.910Z,15.89
2022-10-11T11:58:28.482Z,15.89
2022-10-11T12:01:10.894Z,16.01
2022-10-11T12:03:43.187Z,16.14
2022-10-11T12:06:18.323Z,16.25
2022-10-11T12:08:48.909Z,16.20
2022-10-11T12:11:38.789Z,16.34
2022-10-11T12:14:29.651Z,16.60
2022-10-11T12:17:14.480Z,16.97
2022-10-11T12:19:58.480Z,17.37
2022-10-11T12:22:28.378Z,17.91
2022-10-11T12:25:13.774Z,18.28
2022-10-11T12:27:46.184Z,18.54
2022-10-11T12:30:43.869Z,18.87
2022-10-11T12:33:50.584Z,18.86
2022-10-11T12:36:32.433Z,18.74
2022-10-11T12:39:21.210Z,18.68
2022-10-11T12:41:48.548Z,18.85
2022-10-11T12:44:27.232Z,19.09
2022-10-11T12:46:54.257Z,19.49
2022-10-11T12:49:51.360Z,19.81
2022-10-11T12:52:18.283Z,20.12
2022-10-11T12:55:26.394Z,20.41
2022-10-11T12:58:17.530Z,20.69
2022-10-11T13:01:04.363Z,20.81
2022-10-11T13:03:36.760Z,20.81
2022-10-11T13:06:11.773Z,20.63
2022-10-11T13:08:43.285Z,20.30
2022-10-11T13:11:19.598Z,20.14
2022-10-11T13:13:56.622Z,19.94
2022-10-11T13:16:30.926Z,19.70
2022-10-11T13:19:00.335Z,19.33
2022-10-11T13:21:32.088Z,19.12
2022-10-11T13:24:06.791Z,18.93
2022-10-11T13:26:34.201Z,18.76
2022-10-11T13:29:01.259Z,18.57
2022-10-11T13:31:28.358Z,18.44
2022-10-11T13:33:59.241Z,18.36
2022-10-11T13:36:27.362Z,18.19
2022-10-11T13:38:57.942Z,18.01
2022-10-11T13:41:30.499Z,17.89
2022-10-11T13:43:59.582Z,17.77
2022-10-11T13:46:28.182Z,17.60
2022-10-11T13:49:21.290Z,17.53
2022-10-11T13:51:59.019Z,17.49
2022-10-11T13:54:48.774Z,17.51
2022-10-11T13:57:15.653Z,17.55
2022-10-11T13:59:44.057Z,17.58
2022-10-11T14:02:22.464Z,17.63
2022-10-11T14:04:50.073Z,17.70
2022-10-11T14:07:31.726Z,17.80
2022-10-11T14:09:59.238Z,17.72
2022-10-11T14:12:25.995Z,17.65
2022-10-11T14:14:53.075Z,17.60
2022-10-11T14:17:23.101Z,17.44
2022-10-11T14:20:13.643Z,17.32
2022-10-11T14:22:40.441Z,17.35
2022-10-11T14:25:07.283Z,17.42
2022-10-11T14:27:34.080Z,17.46
2022-10-11T14:30:23.989Z,17.48
2022-10-11T14:32:50.106Z,17.51
2022-10-11T14:35:28.406Z,17.49
2022-10-11T14:37:55.346Z,17.36
2022-10-11T14:40:24.625Z,17.21
2022-10-11T14:42:52.014Z,17.16
2022-10-11T14:45:21.171Z,17.22
2022-10-11T14:47:48.364Z,17.19
2022-10-11T14:50:36.818Z,17.19
2022-10-11T14:53:05.905Z,17.15
2022-10-11T14:55:33.117Z,17.09
2022-10-11T14:58:00.013Z,17.03
2022-10-11T15:00:28.476Z,17.00
2022-10-11T15:02:55.856Z,16.90
2022-10-11T15:05:27.741Z,16.85
2022-10-11T15:07:59.790Z,16.80
2022-10-11T15:10:30.759Z,16.72
2022-10-11T15:12:57.713Z,16.66
2022-10-11T15:15:26.737Z,16.61
2022-10-11T15:17:57.116Z,16.50
2022-10-11T15:20:33.342Z,16.40
2022-10-11T15:23:01.048Z,16.36
2022-10-11T15:25:29.164Z,16.27
2022-10-11T15:27:59.385Z,16.22
2022-10-11T15:30:30.228Z,16.13
2022-10-11T15:32:57.590Z,16.00
2022-10-11T15:35:25.313Z,15.74
2022-10-11T15:37:54.159Z,15.70
2022-10-11T15:40:28.411Z,15.72
2022-10-11T15:42:55.225Z,15.68
2022-10-11T15:45:23.533Z,15.55
2022-10-11T15:47:50.693Z,15.46
2022-10-11T15:50:33.694Z,15.39
2022-10-11T15:53:01.685Z,15.32
2022-10-11T15:55:29.354Z,15.31
2022-10-11T15:57:56.211Z,15.26
2022-10-11T16:00:26.066Z,15.22
2022-10-11T16:02:53.674Z,15.15
2022-10-11T16:05:21.837Z,15.08
2022-10-11T16:07:48.711Z,14.99
2022-10-11T16:10:15.915Z,14.94
2022-10-11T16:12:43.127Z,14.85
2022-10-11T16:15:10.777Z,14.77
2022-10-11T16:17:37.852Z,14.71
2022-10-11T16:20:06.857Z,14.66
2022-10-11T16:22:36.598Z,14.50
2022-10-11T16:25:05.072Z,14.35
2022-10-11T16:27:32.891Z,14.25
2022-10-11T16:30:00.608Z,14.16
2022-10-11T16:32:28.167Z,14.08
2022-10-11T16:34:55.054Z,13.98
2022-10-11T16:37:21.843Z,13.94
2022-10-11T16:39:48.618Z,13.84
2022-10-11T16:42:15.510Z,13.76
2022-10-11T16:44:42.315Z,13.61
2022-10-11T16:47:09.396Z,13.41
2022-10-11T16:49:36.529Z,13.27
2022-10-11T16:52:04.640Z,13.17
2022-10-11T16:54:32.474Z,13.09
2022-10-11T16:57:00.155Z,13.03
2022-10-11T16:59:27.362Z,12.97
2022-10-11T17:01:54.294Z,12.91
2022-10-11T17:04:21.926Z,12.90
2022-10-11T17:06:49.063Z,12.88
2022-10-11T17:09:16.425Z,12.82
2022-10-11T17:11:43.687Z,12.76
2022-10-11T17:14:14.414Z,12.74
2022-10-11T17:16:44.275Z,12.74
2022-10-11T17:19:13.513Z,12.69
2022-10-11T17:21:42.697Z,12.61
2022-10-11T17:24:10.070Z,12.56
2022-10-11T17:26:36.868Z,12.55
2022-10-11T17:29:04.133Z,12.55
2022-10-11T17:31:31.033Z,12.55
2022-10-11T17:34:00.115Z,12.53
2022-10-11T17:36:34.800Z,12.50
2022-10-11T17:39:09.541Z,12.48
2022-10-11T17:41:36.843Z,12.46
2022-10-11T17:44:03.778Z,12.47
2022-10-11T17:46:32.914Z,12.47
2022-10-11T17:49:01.776Z,12.42
2022-10-11T17:51:28.745Z,12.35
2022-10-11T17:53:55.468Z,12.33
2022-10-11T17:56:29.581Z,12.31
2022-10-11T17:58:59.066Z,12.28
2022-10-11T18:01:28.277Z,12.29
2022-10-11T18:04:00.249Z,12.21
2022-10-11T18:06:30.907Z,12.14
2022-10-11T18:09:01.011Z,12.09
2022-10-11T18:11:28.019Z,12.00
2022-10-11T18:14:10.114Z,11.99
2022-10-11T18:16:38.673Z,11.95
2022-10-11T18:19:11.441Z,11.88
2022-10-11T18:21:40.025Z,11.81
2022-10-11T18:24:11.796Z,11.72
2022-10-11T18:26:39.747Z,11.67
2022-10-11T18:29:06.877Z,11.59
2022-10-11T18:31:35.374Z,11.54
2022-10-11T18:34:04.260Z,11.50
2022-10-11T18:36:31.931Z,11.48
2022-10-11T18:39:03.018Z,11.47
2022-10-11T18:41:33.080Z,11.47
2022-10-11T18:44:06.677Z,11.49
2022-10-11T18:46:34.053Z,11.49
2022-10-11T18:49:02.183Z,11.43
2022-10-11T18:51:34.457Z,11.42
2022-10-11T18:54:04.391Z,11.41
2022-10-11T18:56:32.364Z,11.35
2022-10-11T18:59:00.320Z,11.22
2022-10-11T19:01:33.783Z,11.08
2022-10-11T19:04:04.771Z,11.03
2022-10-11T19:06:34.937Z,11.00
2022-10-11T19:09:06.430Z,10.95
2022-10-11T19:11:33.341Z,10.89
2022-10-11T19:14:21.156Z,10.85
2022-10-11T19:16:52.303Z,10.73
2022-10-11T19:19:23.696Z,10.56
2022-10-11T19:21:54.263Z,10.45
2022-10-11T19:24:23.773Z,10.34
2022-10-11T19:26:52.944Z,10.26
2022-10-11T19:29:22.971Z,10.19
2022-10-11T19:31:56.094Z,10.14
2022-10-11T19:34:31.763Z,10.12
2022-10-11T19:37:01.063Z,10.07
2022-10-11T19:39:28.727Z,9.98
2022-10-11T19:41:55.747Z,9.91
2022-10-11T19:44:22.590Z,9.84
2022-10-11T19:46:51.881Z,9.77
2022-10-11T19:49:21.658Z,9.77
2022-10-11T19:51:48.552Z,9.79
2022-10-11T19:54:15.966Z,9.79
2022-10-11T19:56:43.536Z,9.80
2022-10-11T19:59:12.458Z,9.83
2022-10-11T20:01:40.057Z,9.83
2022-10-11T20:04:09.279Z,9.86
2022-10-11T20:06:40.096Z,9.92
2022-10-11T20:11:55.738Z,9.92
2022-10-11T20:14:22.664Z,9.82
2022-10-11T20:16:50.307Z,9.79
2022-10-11T20:19:17.396Z,9.79
2022-10-11T20:21:45.115Z,9.79
2022-10-11T20:24:12.281Z,9.77
2022-10-11T20:26:39.540Z,9.77
2022-10-11T20:29:07.101Z,9.70
2022-10-11T20:31:38.249Z,9.59
2022-10-11T20:34:07.323Z,9.49
2022-10-11T20:36:36.276Z,9.46
2022-10-11T20:39:04.628Z,9.46
2022-10-11T20:41:34.208Z,9.47
2022-10-11T20:44:02.218Z,9.55
2022-10-11T20:46:33.560Z,9.56
2022-10-11T20:49:06.260Z,9.54
2022-10-11T20:51:36.165Z,9.54
2022-10-11T20:54:04.962Z,9.54
2022-10-11T20:56:31.788Z,9.54
2022-10-11T20:58:58.695Z,9.53
2022-10-11T21:01:28.374Z,9.55
2022-10-11T21:03:58.151Z,9.54
2022-10-11T21:06:25.753Z,9.57
2022-10-11T21:08:54.892Z,9.58
2022-10-11T21:11:21.783Z,9.57
2022-10-11T21:13:48.610Z,9.61
2022-10-11T21:16:16.398Z,9.60
2022-10-11T21:18:43.233Z,9.58
2022-10-11T21:21:14.285Z,9.54
2022-10-11T21:23:41.303Z,9.47
2022-10-11T21:26:10.400Z,9.47
2022-10-11T21:28:38.458Z,9.44
2022-10-11T21:31:06.945Z,9.45
2022-10-11T21:33:34.746Z,9.46
2022-10-11T21:36:09.754Z,9.47
2022-10-11T21:38:36.802Z,9.52
2022-10-11T21:41:06.936Z,9.57
2022-10-11T21:43:35.832Z,9.60
2022-10-11T21:46:15.155Z,9.64
2022-10-11T21:48:41.970Z,9.71
2022-10-11T21:51:15.714Z,9.80
2022-10-11T21:53:42.574Z,9.86
2022-10-11T21:56:09.444Z,9.93
2022-10-11T21:58:36.233Z,10.00
2022-10-11T22:01:05.059Z,10.02
2022-10-11T22:03:32.718Z,10.03
2022-10-11T22:06:03.727Z,10.03
2022-10-11T22:08:30.847Z,10.05
2022-10-11T22:11:00.224Z,10.07
2022-10-11T22:13:29.341Z,10.09
2022-10-11T22:15:57.429Z,10.12
2022-10-11T22:18:25.363Z,10.16
2022-10-11T22:20:53.396Z,10.18
2022-10-11T22:23:21.038Z,10.18
2022-10-11T22:25:51.570Z,10.14
2022-10-11T22:28:19.410Z,10.10
2022-10-11T22:30:50.583Z,10.04
2022-10-11T22:33:21.192Z,9.97
2022-10-11T22:35:53.563Z,9.94
2022-10-11T22:38:24.253Z,9.92
2022-10-11T22:40:56.077Z,9.88
2022-10-11T22:43:23.851Z,9.88
2022-10-11T22:45:51.563Z,9.89
2022-10-11T22:48:19.465Z,9.87
2022-10-11T22:50:53.119Z,9.85
2022-10-11T22:53:21.118Z,9.83
2022-10-11T22:55:48.879Z,9.78
2022-10-11T22:58:17.772Z,9.73
2022-10-11T23:00:45.179Z,9.73
2022-10-11T23:03:14.248Z,9.71
2022-10-11T23:05:42.175Z,9.75
2022-10-11T23:08:10.134Z,9.77
2022-10-11T23:10:40.853Z,9.79
2022-10-11T23:13:08.757Z,9.80
2022-10-11T23:15:50.396Z,9.81
2022-10-11T23:18:20.516Z,9.83
2022-10-11T23:20:48.267Z,9.84
2022-10-11T23:23:20.938Z,9.85
2022-10-11T23:25:48.081Z,9.87
2022-10-11T23:28:15.078Z,9.89
2022-10-11T23:30:43.686Z,9.89
2022-10-11T23:33:10.949Z,9.89
2022-10-11T23:35:38.375Z,9.88
2022-10-11T23:38:05.258Z,9.87
2022-10-11T23:40:32.404Z,9.86
2022-10-11T23:42:59.574Z,9.82
2022-10-11T23:45:26.837Z,9.79
2022-10-11T23:47:53.980Z,9.77
2022-10-11T23:50:21.038Z,9.74
2022-10-11T23:52:48.414Z,9.76
2022-10-11T23:55:15.484Z,9.79
2022-10-11T23:57:42.513Z,9.80
